STL weather

Lambert St Louis International Airport
St Louis, Missouri, United States

Public forecast

Using degrees Fahrenheit for public forecast. Weather courtesy of forecast.io.

METAR (pilot weather report)

Retrieved 2017/08/16 20:41 UTC (18 minutes ago):

KSTL 162041Z 20017G37KT 4SM -TSRA BR SQ SCT024 SCT041CB BKN090 OVC250 25/23 A2991 RMK AO2 PK WND 19037/2036 LTG DSNT SE-W RAB34 TSB17 FRQ LTGCGIC SE-W TS SE-W MOV NE P0000 T02500228

TAF (pilot weather forecast)

Retrieved 2017/08/16 18:42 UTC (2 hours ago):

TAF KSTL 161739Z 1618/1724 18007KT P6SM VCTS BKN070CB TEMPO 1618/1620 3SM -SHRA BKN040 FM170600 19007KT 3SM -SHRA VCTS BKN035CB FM170900 22005KT P6SM VCTS OVC025CB FM171400 23007KT P6SM BKN030 FM171700 25008KT P6SM SCT035